Time;durP1;ratioP1;P1;durP2;ratioP2;P2;SDS_P1;SDS_P2;PMS_P1;PMS_P2;Temp;Humidity;BMP_temperature;BMP_pressure;BME280_temperature;BME280_humidity;BME280_pressure;Samples;Min_cycle;Max_cycle;Signal;HPM_P1;HPM_P2
2023/04/11 00:02:10;;;;;;;4.88;3.67;;;11.50;99.90;;;12.31;62.36;97548.75;5232999;28;20295;-63
2023/04/11 00:04:44;;;;;;;4.05;3.75;;;11.50;99.90;;;12.29;61.40;97538.41;5237796;28;20606;-62
2023/04/11 00:07:18;;;;;;;3.60;3.35;;;11.50;99.90;;;12.30;61.33;97534.16;5243633;28;20215;-63
2023/04/11 00:09:52;;;;;;;3.38;3.17;;;11.50;99.90;;;12.27;60.70;97531.47;5238439;28;20225;-62
2023/04/11 00:12:25;;;;;;;3.70;3.40;;;11.50;99.20;;;12.31;60.16;97520.56;5242715;28;20643;-62
2023/04/11 00:14:58;;;;;;;3.40;3.13;;;11.60;98.80;;;12.39;59.65;97506.41;5242145;28;20241;-62
2023/04/11 00:17:31;;;;;;;3.55;2.90;;;11.70;98.20;;;12.49;59.86;97500.84;5236379;28;20197;-63
2023/04/11 00:20:06;;;;;;;3.67;3.35;;;11.80;98.80;;;12.60;59.23;97499.63;5239495;28;20629;-63
2023/04/11 00:22:40;;;;;;;3.50;3.20;;;11.80;98.10;;;12.68;58.81;97496.53;5240375;28;20307;-63
2023/04/11 00:25:15;;;;;;;2.80;2.60;;;12.00;98.00;;;13.03;57.47;97475.78;5238978;28;20715;-63
2023/04/11 00:27:48;;;;;;;3.08;2.88;;;12.20;98.00;;;13.16;57.15;97468.59;5242141;28;20587;-62
2023/04/11 00:30:21;;;;;;;3.03;2.75;;;12.40;97.60;;;13.24;58.42;97460.38;5240109;28;20207;-63
2023/04/11 00:32:54;;;;;;;3.00;2.70;;;12.50;97.80;;;13.12;58.72;97451.31;5236614;28;20291;-63
2023/04/11 00:35:27;;;;;;;3.05;2.75;;;12.40;98.60;;;13.05;59.83;97452.78;5233449;28;20220;-63
2023/04/11 00:38:01;;;;;;;3.25;2.95;;;12.40;99.30;;;13.06;61.71;97444.25;5241356;28;20288;-63
2023/04/11 00:40:35;;;;;;;2.92;2.72;;;12.40;99.90;;;13.08;62.47;97429.81;5240099;28;20226;-62
2023/04/11 00:43:08;;;;;;;3.35;2.97;;;12.40;99.90;;;13.04;62.22;97438.19;5237483;28;20223;-63
2023/04/11 00:45:41;;;;;;;3.38;3.08;;;12.40;99.90;;;12.99;62.10;97427.75;5241022;28;20232;-63
2023/04/11 00:48:15;;;;;;;4.40;2.75;;;12.40;99.90;;;12.95;64.47;97423.28;5237238;28;20659;-62
2023/04/11 00:50:48;;;;;;;2.88;2.63;;;12.30;99.90;;;12.94;63.87;97439.50;5240360;28;20192;-63
2023/04/11 00:53:22;;;;;;;2.50;2.40;;;12.30;99.90;;;12.94;63.28;97452.34;5239128;28;20668;-63
2023/04/11 00:55:57;;;;;;;3.00;2.72;;;12.30;99.90;;;12.94;63.70;97449.75;5238954;28;20838;-63
2023/04/11 00:58:30;;;;;;;3.35;2.38;;;12.30;99.90;;;13.00;64.32;97439.75;5236386;28;20199;-63
2023/04/11 01:01:07;;;;;;;2.65;2.47;;;12.30;99.90;;;13.05;63.50;97438.25;5237146;28;20221;-63
2023/04/11 01:03:41;;;;;;;3.08;2.63;;;12.30;99.90;;;13.21;62.87;97429.47;5236027;28;20926;-64
2023/04/11 01:06:17;;;;;;;2.40;2.20;;;12.40;99.90;;;13.25;63.91;97427.91;5234786;28;20224;-64
2023/04/11 01:08:50;;;;;;;3.42;2.42;;;12.50;99.90;;;13.31;63.71;97433.31;5238183;28;20294;-63
2023/04/11 01:11:25;;;;;;;2.72;2.30;;;12.50;99.90;;;13.28;63.57;97435.78;5237710;28;20231;-64
2023/04/11 01:13:59;;;;;;;2.53;2.28;;;12.50;99.90;;;13.19;64.63;97437.91;5232392;28;20652;-63
2023/04/11 01:16:32;;;;;;;2.80;2.60;;;12.50;99.90;;;13.17;65.41;97421.59;5241183;28;20221;-63
2023/04/11 01:19:06;;;;;;;2.58;2.40;;;12.50;99.90;;;13.09;66.25;97426.41;5239146;28;20197;-64
2023/04/11 01:21:40;;;;;;;3.20;2.58;;;12.40;99.90;;;13.06;66.97;97434.88;5241933;28;20891;-64
2023/04/11 01:24:14;;;;;;;3.00;2.70;;;12.40;99.90;;;13.01;68.56;97440.63;5235786;28;20197;-64
2023/04/11 01:26:48;;;;;;;2.72;2.53;;;12.30;99.90;;;12.90;69.90;97427.34;5237679;28;20552;-64
2023/04/11 01:29:21;;;;;;;3.38;2.75;;;12.30;99.90;;;12.84;71.49;97421.97;5236394;28;20200;-63
2023/04/11 01:31:54;;;;;;;2.72;2.53;;;12.20;99.90;;;12.78;71.77;97430.28;5234047;28;20200;-64
2023/04/11 01:34:28;;;;;;;2.75;2.55;;;12.10;99.90;;;12.67;73.03;97428.97;5233742;28;20651;-63
2023/04/11 01:37:01;;;;;;;3.03;2.80;;;12.10;99.90;;;12.70;72.23;97428.22;5241575;28;20639;-63
2023/04/11 01:39:36;;;;;;;2.70;2.53;;;12.00;99.90;;;12.67;72.60;97443.47;5240438;28;20634;-64
2023/04/11 01:42:10;;;;;;;2.83;2.55;;;12.00;99.90;;;12.69;73.59;97431.59;5240623;28;20220;-64
2023/04/11 01:44:43;;;;;;;4.20;2.67;;;12.00;99.90;;;12.75;75.18;97436.97;5234290;28;20225;-64
2023/04/11 01:47:16;;;;;;;3.28;2.90;;;12.10;99.90;;;12.75;76.07;97422.47;5237175;28;20220;-63
2023/04/11 01:49:49;;;;;;;2.75;2.55;;;12.20;99.90;;;12.83;74.48;97427.94;5229183;28;20204;-64
2023/04/11 01:52:22;;;;;;;3.88;3.00;;;12.10;99.90;;;12.59;78.42;97420.97;5232283;28;20225;-63
2023/04/11 01:54:57;;;;;;;3.03;2.72;;;12.10;99.90;;;12.51;79.83;97419.78;5233519;28;20220;-64
2023/04/11 01:57:30;;;;;;;3.15;2.75;;;12.00;99.90;;;12.49;80.15;97415.38;5229950;28;20196;-64
2023/04/11 02:00:04;;;;;;;2.67;2.45;;;12.00;99.90;;;12.37;81.40;97433.69;5235498;28;20219;-63
2023/04/11 02:02:38;;;;;;;3.10;2.80;;;11.90;99.90;;;12.34;83.34;97446.38;5240797;28;20196;-63
2023/04/11 02:05:11;;;;;;;3.83;2.80;;;11.80;99.90;;;12.24;83.33;97450.19;5238931;28;20266;-62
2023/04/11 02:07:44;;;;;;;3.38;3.08;;;11.80;99.90;;;12.11;85.27;97438.56;5236036;28;20202;-64
2023/04/11 02:10:19;;;;;;;4.10;3.10;;;11.60;99.90;;;12.01;86.92;97426.13;5238413;28;20204;-62
2023/04/11 02:12:52;;;;;;;3.10;2.80;;;11.60;99.90;;;11.93;86.38;97422.34;5240259;28;20212;-63
2023/04/11 02:15:25;;;;;;;3.22;2.88;;;11.50;99.90;;;11.93;86.33;97432.59;5240543;28;20368;-63
2023/04/11 02:17:59;;;;;;;3.47;2.78;;;11.40;99.90;;;11.89;86.98;97431.59;5239346;28;20200;-64
2023/04/11 02:20:32;;;;;;;2.90;2.70;;;11.40;99.90;;;11.83;87.66;97446.66;5238007;28;20216;-62
2023/04/11 02:23:05;;;;;;;3.10;2.90;;;11.40;99.90;;;11.81;88.52;97439.69;5235414;28;20232;-62
2023/04/11 02:25:40;;;;;;;3.40;3.20;;;11.30;99.90;;;11.77;88.47;97438.69;5237250;28;20220;-62
2023/04/11 02:28:13;;;;;;;3.22;3.00;;;11.30;99.90;;;11.75;89.56;97447.09;5241418;28;20227;-63
2023/04/11 02:30:46;;;;;;;3.15;2.95;;;11.30;99.90;;;11.75;90.28;97455.66;5238097;28;20200;-64
2023/04/11 02:33:19;;;;;;;3.40;3.13;;;11.20;99.90;;;11.72;90.18;97469.19;5237572;28;20236;-63
2023/04/11 02:35:52;;;;;;;3.28;2.97;;;11.20;99.90;;;11.69;91.09;97465.63;5233547;28;20622;-62
2023/04/11 02:38:25;;;;;;;3.47;3.08;;;11.20;99.90;;;11.69;90.48;97463.94;5235309;28;20242;-63
2023/04/11 02:41:00;;;;;;;3.88;3.47;;;11.20;99.90;;;11.63;93.94;97481.56;5238763;28;20228;-63
2023/04/11 02:43:33;;;;;;;3.10;2.83;;;11.20;99.90;;;11.59;95.57;97494.16;5239538;28;20240;-63
2023/04/11 02:46:06;;;;;;;3.88;3.58;;;11.10;99.90;;;11.47;99.47;97481.66;5241191;28;20315;-64
2023/04/11 02:48:45;;;;;;;4.35;3.25;;;11.00;99.90;;;11.37;100.00;97493.16;5235830;28;20205;-63
2023/04/11 02:51:18;;;;;;;4.22;3.75;;;10.90;99.90;;;11.25;100.00;97496.00;5231825;28;20197;-61
2023/04/11 02:53:51;;;;;;;4.40;4.05;;;10.80;99.90;;;11.20;100.00;97510.25;5238830;28;20675;-63
2023/04/11 02:56:26;;;;;;;4.00;3.70;;;10.60;99.90;;;11.15;100.00;97510.81;5239393;28;20231;-64
2023/04/11 02:58:59;;;;;;;4.07;3.80;;;10.60;99.90;;;11.22;100.00;97511.19;5240537;28;20199;-63
2023/04/11 03:01:32;;;;;;;4.43;4.03;;;10.60;99.90;;;11.25;100.00;97519.03;5234827;28;20224;-63
2023/04/11 03:04:06;;;;;;;3.47;3.28;;;10.60;99.90;;;11.27;100.00;97512.31;5224406;28;21027;-63
2023/04/11 03:06:39;;;;;;;3.50;3.10;;;10.60;99.90;;;11.20;100.00;97494.88;5222408;28;20217;-63
2023/04/11 03:09:12;;;;;;;3.50;3.20;;;10.60;99.90;;;10.99;100.00;97499.84;5232620;28;20678;-63
2023/04/11 03:11:47;;;;;;;3.38;3.10;;;10.40;99.90;;;10.94;100.00;97505.53;5237298;28;20201;-63
2023/04/11 03:14:20;;;;;;;3.13;2.92;;;10.40;99.90;;;10.88;100.00;97507.78;5233987;28;20223;-63
2023/04/11 03:16:53;;;;;;;3.03;2.83;;;10.20;99.90;;;10.74;100.00;97507.09;5238699;28;20208;-63
2023/04/11 03:19:26;;;;;;;3.57;2.70;;;10.10;99.90;;;10.75;100.00;97498.59;5239821;28;20205;-63
2023/04/11 03:22:01;;;;;;;3.15;2.88;;;10.10;99.90;;;10.79;100.00;97506.53;5237577;28;20359;-62
2023/04/11 03:24:34;;;;;;;2.97;2.70;;;10.20;99.90;;;10.78;100.00;97520.06;5237721;28;20716;-63
2023/04/11 03:27:08;;;;;;;3.35;3.10;;;10.10;99.90;;;10.85;100.00;97530.66;5236202;28;20208;-63
2023/04/11 03:29:41;;;;;;;3.20;2.92;;;10.10;99.90;;;10.74;100.00;97527.53;5235584;28;20261;-63
2023/04/11 03:32:14;;;;;;;2.97;2.77;;;10.10;99.90;;;10.67;100.00;97523.75;5243190;28;20641;-64
2023/04/11 03:34:48;;;;;;;3.10;2.90;;;10.00;99.90;;;10.63;100.00;97516.75;5234055;28;20329;-62
2023/04/11 03:37:20;;;;;;;2.97;2.77;;;10.00;99.90;;;10.64;100.00;97526.16;5236294;28;20200;-63
2023/04/11 03:39:54;;;;;;;2.80;2.60;;;10.00;99.90;;;10.57;100.00;97517.31;5234904;28;20205;-64
2023/04/11 03:42:28;;;;;;;3.37;3.07;;;10.00;99.90;;;10.54;100.00;97516.28;5236726;28;20307;-64
2023/04/11 03:45:01;;;;;;;3.50;3.30;;;9.90;99.90;;;10.53;100.00;97523.09;5241811;28;20220;-64
2023/04/11 03:47:34;;;;;;;3.50;3.30;;;9.90;99.90;;;10.56;100.00;97532.59;5237595;28;20293;-63
2023/04/11 03:50:08;;;;;;;3.37;3.07;;;9.90;99.90;;;10.57;100.00;97526.66;5238293;28;20196;-64
2023/04/11 03:52:41;;;;;;;3.43;3.17;;;9.90;99.90;;;10.58;100.00;97536.94;5241589;28;20246;-64
2023/04/11 03:55:14;;;;;;;3.67;2.90;;;10.00;99.90;;;10.52;100.00;97523.00;5237648;28;20308;-63
2023/04/11 03:57:49;;;;;;;3.27;2.87;;;9.90;99.90;;;10.52;100.00;97530.66;5229215;28;20669;-64
2023/04/11 04:00:22;;;;;;;3.00;2.80;;;9.80;99.90;;;10.51;100.00;97531.47;5227043;28;20208;-64
2023/04/11 04:02:55;;;;;;;3.37;2.70;;;9.90;99.90;;;10.52;100.00;97523.00;5229619;28;20227;-64
2023/04/11 04:05:29;;;;;;;3.10;2.80;;;9.90;99.90;;;10.53;100.00;97527.28;5234236;28;20251;-64
2023/04/11 04:08:02;;;;;;;2.53;2.33;;;9.90;99.90;;;10.57;100.00;97519.00;5238469;28;20579;-64
2023/04/11 04:10:35;;;;;;;4.07;2.60;;;9.90;99.90;;;10.51;100.00;97521.25;5235662;28;20478;-64
2023/04/11 04:13:10;;;;;;;2.85;2.65;;;9.80;99.90;;;10.49;100.00;97510.06;5245077;28;20374;-62
2023/04/11 04:15:43;;;;;;;2.70;2.50;;;9.80;99.90;;;10.47;100.00;97506.53;5241440;28;20323;-64
2023/04/11 04:18:16;;;;;;;3.00;2.70;;;9.70;99.90;;;10.50;100.00;97506.69;5237591;28;20285;-63
2023/04/11 04:20:49;;;;;;;3.03;2.83;;;9.70;99.90;;;10.47;100.00;97519.31;5243007;28;20601;-62
2023/04/11 04:23:22;;;;;;;2.77;2.50;;;9.80;99.90;;;10.47;100.00;97503.97;5239941;28;20221;-64
2023/04/11 04:25:56;;;;;;;3.20;2.90;;;9.70;99.90;;;10.49;100.00;97492.19;5242299;28;20217;-64
2023/04/11 04:28:31;;;;;;;3.33;3.13;;;9.80;99.90;;;10.49;100.00;97504.94;5232062;28;20200;-64
2023/04/11 04:31:07;;;;;;;3.50;3.20;;;9.70;99.90;;;10.55;100.00;97500.16;5236275;28;20261;-63
2023/04/11 04:33:41;;;;;;;3.22;3.03;;;9.70;99.90;;;10.50;100.00;97516.91;5239416;28;20228;-64
2023/04/11 04:36:16;;;;;;;3.70;3.40;;;9.70;99.90;;;10.55;100.00;97529.13;5241377;28;20228;-63
2023/04/11 04:38:49;;;;;;;4.28;3.22;;;9.70;99.90;;;10.50;100.00;97527.13;5239396;28;20204;-64
2023/04/11 04:41:22;;;;;;;3.42;3.13;;;9.70;99.90;;;10.59;100.00;97537.84;5239416;28;20205;-63
2023/04/11 04:43:57;;;;;;;3.93;3.20;;;9.70;99.90;;;10.51;100.00;97546.81;5238541;28;20227;-63
2023/04/11 04:46:35;;;;;;;3.00;2.70;;;9.70;99.90;;;10.61;100.00;97549.00;5237938;28;20220;-62
2023/04/11 04:49:09;;;;;;;3.23;2.47;;;9.70;99.90;;;10.55;100.00;97558.91;5239964;28;20660;-63
2023/04/11 04:51:42;;;;;;;2.93;2.47;;;9.60;99.90;;;10.40;100.00;97564.13;5230552;28;20224;-63
2023/04/11 04:54:18;;;;;;;2.97;2.10;;;9.60;99.90;;;10.36;100.00;97554.53;5238487;28;20687;-63
2023/04/11 04:56:51;;;;;;;4.73;2.90;;;9.50;99.90;;;10.41;100.00;97577.75;5239762;28;20200;-63
2023/04/11 04:59:25;;;;;;;3.03;2.43;;;9.50;99.90;;;10.25;100.00;97570.94;5236602;28;20219;-63
2023/04/11 05:01:58;;;;;;;3.27;2.63;;;9.40;99.90;;;10.20;100.00;97577.47;5236625;28;20211;-63
2023/04/11 05:04:33;;;;;;;4.80;2.60;;;9.30;99.90;;;10.08;100.00;97583.66;5238267;28;20203;-64
2023/04/11 05:07:06;;;;;;;3.57;3.13;;;9.30;99.90;;;10.18;100.00;97589.28;5237241;28;20520;-64
2023/04/11 05:09:39;;;;;;;4.40;3.10;;;9.30;99.90;;;10.12;100.00;97594.94;5237818;28;20208;-63
2023/04/11 05:12:12;;;;;;;3.27;2.67;;;9.30;99.90;;;10.00;100.00;97590.03;5235565;28;20207;-64
2023/04/11 05:14:47;;;;;;;4.90;3.30;;;9.30;99.90;;;10.02;100.00;97596.09;5240054;28;20220;-63
2023/04/11 05:17:20;;;;;;;4.33;3.10;;;9.30;99.90;;;9.90;100.00;97605.63;5240436;28;20210;-64
2023/04/11 05:19:55;;;;;;;4.57;2.57;;;9.20;99.90;;;9.76;100.00;97609.09;5240109;28;20579;-63
2023/04/11 05:22:28;;;;;;;2.93;2.60;;;9.00;99.90;;;9.91;100.00;97623.59;5235709;28;20426;-64
2023/04/11 05:25:02;;;;;;;3.57;2.63;;;9.10;99.90;;;9.86;100.00;97632.66;5236982;28;20221;-63
2023/04/11 05:27:35;;;;;;;3.37;2.77;;;9.10;99.90;;;9.89;100.00;97643.03;5230314;28;20215;-64
2023/04/11 05:30:11;;;;;;;5.57;2.63;;;9.20;99.90;;;9.79;100.00;97648.44;5236938;28;20280;-63
2023/04/11 05:32:45;;;;;;;4.50;2.60;;;9.10;99.90;;;9.78;100.00;97654.31;5237849;28;20200;-62
2023/04/11 05:35:18;;;;;;;4.77;2.60;;;9.10;99.90;;;9.89;100.00;97660.91;5240494;28;20221;-62
2023/04/11 05:37:51;;;;;;;5.43;2.67;;;9.20;99.90;;;9.80;100.00;97662.09;5236906;28;20620;-64
2023/04/11 05:40:24;;;;;;;3.17;2.83;;;9.10;99.90;;;9.69;100.00;97664.00;5232125;28;20212;-62
2023/04/11 05:42:57;;;;;;;2.80;2.43;;;9.00;99.90;;;9.68;100.00;97652.94;5240879;28;20216;-62
2023/04/11 05:45:31;;;;;;;4.37;2.93;;;9.00;99.90;;;9.77;100.00;97667.88;5236907;28;20224;-63
2023/04/11 05:48:06;;;;;;;3.33;2.50;;;9.00;99.90;;;9.64;100.00;97667.97;5231761;28;20622;-62
2023/04/11 05:50:40;;;;;;;3.63;2.63;;;8.90;99.90;;;9.62;100.00;97674.69;5239442;28;20680;-63
2023/04/11 05:53:13;;;;;;;3.07;2.63;;;8.80;99.90;;;9.63;100.00;97674.75;5238511;28;20668;-64
2023/04/11 05:55:46;;;;;;;4.27;2.77;;;8.80;99.90;;;9.61;100.00;97685.66;5236948;28;20360;-63
2023/04/11 05:58:19;;;;;;;3.07;2.50;;;8.80;99.90;;;9.52;100.00;97693.66;5235189;28;20208;-63
2023/04/11 06:00:53;;;;;;;6.17;2.83;;;8.70;99.90;;;9.47;100.00;97692.50;5237527;28;20213;-62
2023/04/11 06:03:26;;;;;;;3.63;2.90;;;8.70;99.90;;;9.45;100.00;97682.22;5240846;28;20230;-62
2023/04/11 06:06:00;;;;;;;4.40;2.57;;;8.70;99.90;;;9.35;100.00;97692.66;5240086;28;20232;-62
2023/04/11 06:08:34;;;;;;;2.73;2.53;;;8.60;99.90;;;9.20;100.00;97686.66;5235012;28;20200;-62
2023/04/11 06:11:07;;;;;;;2.60;2.40;;;8.50;99.90;;;9.23;100.00;97679.19;5237350;28;20267;-63
2023/04/11 06:13:40;;;;;;;2.67;2.47;;;8.50;99.90;;;9.13;100.00;97684.53;5228889;28;20200;-63
2023/04/11 06:16:14;;;;;;;2.93;2.40;;;8.40;99.90;;;9.18;100.00;97699.31;5234018;28;20875;-63
2023/04/11 06:18:48;;;;;;;2.77;2.50;;;8.40;99.90;;;9.17;100.00;97701.78;5235836;28;20613;-64
2023/04/11 06:21:21;;;;;;;2.87;2.67;;;8.30;99.90;;;9.06;100.00;97718.13;5239617;28;20548;-63
2023/04/11 06:23:54;;;;;;;3.67;2.60;;;8.30;99.90;;;9.03;100.00;97718.81;5241087;28;20225;-63
2023/04/11 06:26:27;;;;;;;3.43;3.20;;;8.20;99.90;;;9.11;100.00;97714.19;5233499;28;20221;-65
2023/04/11 06:29:03;;;;;;;5.77;3.90;;;8.20;99.90;;;9.06;100.00;97718.13;5238861;28;20587;-64
2023/04/11 06:31:37;;;;;;;5.33;4.10;;;8.10;99.90;;;8.98;100.00;97730.38;5240633;28;20200;-64
2023/04/11 06:34:11;;;;;;;3.93;3.13;;;8.20;99.90;;;8.90;100.00;97727.38;5241655;28;20208;-64
2023/04/11 06:36:46;;;;;;;6.03;3.23;;;8.10;99.90;;;8.91;100.00;97718.94;5240627;28;20235;-63
2023/04/11 06:39:20;;;;;;;2.93;2.47;;;8.10;99.90;;;8.93;100.00;97712.28;5236894;28;20224;-63
2023/04/11 06:41:53;;;;;;;2.97;2.67;;;8.10;99.90;;;8.94;100.00;97721.69;5240677;28;20572;-64
2023/04/11 06:44:26;;;;;;;2.93;2.20;;;8.10;99.90;;;8.96;100.00;97722.66;5241414;28;20255;-64
2023/04/11 06:47:01;;;;;;;4.77;2.83;;;8.10;99.90;;;9.00;100.00;97724.59;5241089;28;20258;-66
2023/04/11 06:49:35;;;;;;;3.27;2.50;;;8.20;99.90;;;8.93;100.00;97725.03;5225301;28;20220;-63
2023/04/11 06:52:08;;;;;;;4.00;2.93;;;8.20;99.90;;;8.98;100.00;97728.72;5231615;28;20200;-62
2023/04/11 06:54:41;;;;;;;3.57;2.50;;;8.20;99.90;;;9.02;100.00;97727.25;5232731;28;20254;-64
2023/04/11 06:57:14;;;;;;;2.63;2.40;;;8.20;99.90;;;9.07;100.00;97724.97;5237887;28;20200;-64
2023/04/11 06:59:47;;;;;;;2.80;2.27;;;8.30;99.90;;;9.12;100.00;97739.75;5239242;28;20207;-63
2023/04/11 07:02:23;;;;;;;3.87;2.50;;;8.30;99.90;;;9.13;100.00;97743.16;5234849;28;20208;-64
2023/04/11 07:04:57;;;;;;;2.60;2.40;;;8.30;99.90;;;9.06;100.00;97739.38;5238436;28;20220;-64
2023/04/11 07:07:30;;;;;;;2.73;2.40;;;8.30;99.90;;;9.03;100.00;97737.53;5239749;28;20204;-62
2023/04/11 07:10:03;;;;;;;2.80;2.50;;;8.30;99.90;;;9.07;100.00;97743.72;5240171;28;20290;-66
2023/04/11 07:12:36;;;;;;;2.47;2.27;;;8.30;99.90;;;9.06;100.00;97749.56;5244245;28;20203;-66
2023/04/11 07:15:10;;;;;;;4.07;2.40;;;8.30;99.90;;;9.14;100.00;97750.06;5240247;28;20243;-65
2023/04/11 07:17:47;;;;;;;3.63;2.40;;;8.40;99.90;;;9.24;100.00;97743.06;5240804;28;20205;-66
2023/04/11 07:20:23;;;;;;;2.50;2.30;;;8.50;99.90;;;9.41;100.00;97746.63;5238166;28;20303;-66
2023/04/11 07:22:56;;;;;;;3.87;2.47;;;8.60;99.90;;;9.55;100.00;97756.75;5241951;28;20214;-64
2023/04/11 07:25:32;;;;;;;2.27;2.00;;;8.80;99.90;;;9.63;100.00;97758.97;5236960;28;21870;-65
2023/04/11 07:28:07;;;;;;;3.00;2.20;;;8.90;99.90;;;9.66;100.00;97754.03;5234209;28;20211;-65
2023/04/11 07:30:41;;;;;;;2.37;2.17;;;8.80;99.90;;;9.59;100.00;97753.59;5241876;28;20236;-66
2023/04/11 07:33:15;;;;;;;2.43;2.20;;;8.80;99.90;;;9.68;100.00;97764.34;5231115;28;20601;-66
2023/04/11 07:35:48;;;;;;;3.53;2.57;;;8.80;99.90;;;9.63;100.00;97768.28;5233686;28;20224;-66
2023/04/11 07:38:28;;;;;;;2.67;2.13;;;8.80;99.90;;;9.60;100.00;97760.47;5232133;28;20202;-66
2023/04/11 07:41:02;;;;;;;3.07;2.70;;;8.70;99.90;;;9.52;100.00;97771.88;5234883;28;20825;-64
2023/04/11 07:43:36;;;;;;;2.83;2.50;;;8.70;99.90;;;9.42;100.00;97775.56;5238199;28;20215;-65
2023/04/11 07:46:09;;;;;;;3.40;2.17;;;8.70;99.90;;;9.42;100.00;97786.63;5245281;28;20711;-66
2023/04/11 07:48:43;;;;;;;2.57;2.00;;;8.70;99.90;;;9.56;100.00;97768.72;5237116;28;20239;-66
2023/04/11 07:51:17;;;;;;;3.30;2.00;;;8.80;99.90;;;9.68;100.00;97772.88;5241929;28;20204;-65
2023/04/11 07:53:50;;;;;;;2.70;2.30;;;8.80;99.90;;;9.67;100.00;97760.91;5238805;28;20210;-66
2023/04/11 07:56:23;;;;;;;4.57;2.47;;;8.90;99.90;;;9.67;100.00;97767.66;5245334;28;20217;-67
2023/04/11 07:58:57;;;;;;;3.40;2.00;;;8.90;99.90;;;9.82;100.00;97762.59;5238758;28;20208;-66
2023/04/11 08:01:30;;;;;;;3.57;2.23;;;9.00;99.90;;;9.83;100.00;97765.22;5244534;28;20666;-65
2023/04/11 08:04:05;;;;;;;5.27;2.60;;;9.00;99.90;;;9.85;100.00;97776.41;5243795;28;20220;-66
2023/04/11 08:06:38;;;;;;;4.03;2.70;;;9.10;99.90;;;9.95;100.00;97774.41;5245398;28;20251;-67
2023/04/11 08:09:11;;;;;;;6.07;2.23;;;9.10;99.90;;;10.06;100.00;97778.44;5245175;28;20227;-66
2023/04/11 08:11:44;;;;;;;3.57;2.50;;;9.20;99.90;;;10.06;100.00;97769.09;5244496;28;20201;-67
2023/04/11 08:14:17;;;;;;;3.13;1.93;;;9.20;99.90;;;10.15;100.00;97763.66;5239616;28;20211;-65
2023/04/11 08:16:52;;;;;;;2.93;2.00;;;9.30;99.90;;;10.13;100.00;97778.03;5244793;28;20319;-66
2023/04/11 08:19:27;;;;;;;4.87;2.03;;;9.30;99.90;;;10.11;100.00;97775.38;5245296;28;20200;-66
2023/04/11 08:22:00;;;;;;;2.67;1.80;;;9.30;99.90;;;10.20;100.00;97772.44;5244709;28;20326;-66
2023/04/11 08:24:33;;;;;;;2.37;2.10;;;9.40;99.90;;;10.27;100.00;97782.28;5240209;28;20314;-66
2023/04/11 08:27:06;;;;;;;3.10;2.10;;;9.50;99.90;;;10.38;100.00;97782.84;5251380;28;20204;-66
2023/04/11 08:29:39;;;;;;;2.50;2.30;;;9.50;99.90;;;10.55;100.00;97781.25;5244727;28;20676;-66
2023/04/11 08:32:12;;;;;;;3.90;2.20;;;9.70;99.90;;;10.59;99.88;97772.97;5243607;28;20223;-65
2023/04/11 08:34:46;;;;;;;3.70;2.33;;;9.70;99.90;;;10.59;98.54;97780.66;5239631;28;20308;-66
2023/04/11 08:37:19;;;;;;;3.53;2.57;;;9.80;99.90;;;10.89;99.63;97778.00;5244381;28;20199;-66
2023/04/11 08:39:52;;;;;;;3.72;2.92;;;10.00;99.90;;;11.03;95.64;97788.16;5244496;28;20216;-66
2023/04/11 08:42:27;;;;;;;3.20;2.40;;;10.10;99.90;;;11.12;97.67;97776.69;5242579;28;20242;-66
2023/04/11 08:45:02;;;;;;;3.07;2.40;;;10.20;99.90;;;11.24;95.81;97782.44;5238221;28;20219;-66
2023/04/11 08:47:36;;;;;;;4.40;2.27;;;10.40;99.90;;;11.31;97.67;97793.91;5241399;28;20671;-66
2023/04/11 08:50:11;;;;;;;3.47;2.50;;;10.50;99.90;;;11.52;95.96;97789.91;5244339;28;20201;-67
2023/04/11 08:52:46;;;;;;;3.55;2.78;;;10.60;99.90;;;11.46;88.71;97792.13;5244577;28;20660;-67
2023/04/11 08:55:19;;;;;;;4.63;2.70;;;10.60;99.90;;;11.43;87.17;97797.09;5241949;28;20572;-66
2023/04/11 08:57:53;;;;;;;3.85;2.38;;;10.60;99.90;;;11.44;91.34;97796.28;5244280;28;20200;-66
2023/04/11 09:00:27;;;;;;;6.22;3.35;;;10.60;99.90;;;11.52;86.36;97783.91;5244496;28;20216;-66
2023/04/11 09:03:03;;;;;;;5.05;2.53;;;10.60;99.90;;;11.57;81.09;97783.34;5244272;28;20291;-67
2023/04/11 09:05:39;;;;;;;4.07;2.30;;;10.80;99.90;;;11.60;84.03;97788.63;5241254;28;20228;-65
2023/04/11 09:08:13;;;;;;;4.03;2.03;;;10.90;99.90;;;11.67;83.51;97785.56;5244077;28;20227;-67
2023/04/11 09:10:47;;;;;;;4.57;2.78;;;10.90;99.90;;;11.79;82.29;97782.78;5243182;28;20199;-67
2023/04/11 09:13:22;;;;;;;5.85;2.70;;;11.00;99.90;;;11.78;80.37;97788.66;5243742;28;20231;-66
2023/04/11 09:16:05;;;;;;;4.88;2.20;;;11.10;99.90;;;11.79;76.82;97799.78;5238047;28;20220;-66
2023/04/11 09:18:41;;;;;;;4.40;2.40;;;11.00;99.90;;;12.08;78.23;97791.06;5239269;28;20254;-65
2023/04/11 09:21:18;;;;;;;6.22;2.63;;;11.40;99.90;;;12.27;75.20;97795.41;5230450;28;20626;-66
2023/04/11 09:23:51;;;;;;;5.60;2.20;;;11.70;99.90;;;12.34;73.55;97782.09;5235286;28;20192;-66
2023/04/11 09:26:29;;;;;;;5.55;2.20;;;11.80;99.90;;;12.52;71.77;97792.38;5233684;28;20225;-68
2023/04/11 09:29:02;;;;;;;4.20;2.08;;;12.00;99.90;;;12.71;72.91;97792.44;5228468;28;20580;-66
2023/04/11 09:31:44;;;;;;;4.78;2.28;;;12.10;99.90;;;12.95;70.96;97794.41;5230706;28;20208;-66
2023/04/11 09:34:26;;;;;;;3.72;1.92;;;12.30;99.90;;;13.02;69.26;97789.63;5233877;28;20216;-63
2023/04/11 09:37:00;;;;;;;5.80;2.47;;;12.50;99.90;;;13.28;68.77;97783.16;5235014;28;20292;-66
2023/04/11 09:39:34;;;;;;;3.65;2.03;;;12.80;99.90;;;13.45;66.46;97768.50;5228288;28;20235;-66
2023/04/11 09:42:24;;;;;;;2.70;1.90;;;12.90;99.90;;;13.79;61.89;97769.94;5234709;28;20304;-67
2023/04/11 09:44:57;;;;;;;3.03;1.80;;;13.20;99.90;;;13.83;61.45;97769.28;5234944;28;20235;-65
2023/04/11 09:47:32;;;;;;;5.30;2.17;;;13.20;99.90;;;13.79;60.51;97780.22;5235577;28;20211;-66
2023/04/11 09:50:07;;;;;;;6.07;2.10;;;13.20;99.90;;;13.98;58.49;97772.50;5243082;28;20203;-67
2023/04/11 09:52:43;;;;;;;5.03;2.17;;;13.30;99.90;;;13.80;56.66;97776.00;5233959;28;20302;-65
2023/04/11 09:55:20;;;;;;;5.57;2.50;;;13.20;99.90;;;13.61;58.97;97776.88;5239719;28;20226;-67
2023/04/11 09:57:54;;;;;;;4.30;1.88;;;12.90;99.90;;;13.91;58.00;97765.34;5232879;28;20223;-67
2023/04/11 10:00:29;;;;;;;4.47;2.20;;;13.30;99.90;;;14.13;55.45;97773.94;5231938;28;20970;-67
2023/04/11 10:03:02;;;;;;;3.25;1.90;;;13.30;99.90;;;14.32;54.51;97773.91;5233224;28;20207;-67
2023/04/11 10:05:35;;;;;;;5.78;2.10;;;13.50;99.40;;;14.21;56.73;97780.28;5241694;28;20224;-67
2023/04/11 10:08:18;;;;;;;4.65;2.00;;;13.30;99.90;;;14.11;58.29;97783.31;5233060;28;20203;-66
2023/04/11 10:10:52;;;;;;;3.42;1.85;;;13.10;99.90;;;14.04;57.87;97796.69;5232645;28;20228;-67
2023/04/11 10:13:40;;;;;;;4.80;1.80;;;13.10;99.90;;;13.85;59.19;97788.22;5237860;28;20200;-67
2023/04/11 10:16:14;;;;;;;4.43;1.90;;;12.90;99.90;;;13.65;59.38;97797.63;5237182;28;20224;-67
2023/04/11 10:19:26;;;;;;;3.90;2.03;;;12.70;99.90;;;13.72;58.01;97798.78;5232473;28;20200;-67
2023/04/11 10:21:58;;;;;;;3.38;2.35;;;12.70;99.90;;;13.46;58.94;97785.66;5237633;28;20197;-66
2023/04/11 10:24:33;;;;;;;5.68;2.50;;;12.40;99.90;;;13.44;58.41;97789.84;5238036;28;20227;-67
2023/04/11 10:27:06;;;;;;;5.28;2.20;;;12.40;99.90;;;13.47;58.88;97782.25;5237462;28;20209;-65
2023/04/11 10:29:51;;;;;;;3.75;2.10;;;12.40;99.90;;;13.67;57.64;97779.69;5239609;28;20211;-67
2023/04/11 10:32:25;;;;;;;4.47;2.00;;;12.70;99.90;;;13.73;56.05;97785.09;5241290;28;20200;-67
2023/04/11 10:35:23;;;;;;;3.63;1.85;;;12.80;99.90;;;14.03;56.61;97775.28;5233221;28;20228;-66
2023/04/11 10:37:56;;;;;;;3.67;1.75;;;13.10;99.90;;;14.31;54.78;97773.84;5234862;28;20193;-67
2023/04/11 10:40:30;;;;;;;4.38;1.60;;;13.40;99.50;;;14.57;51.32;97780.09;5234697;28;20203;-66
2023/04/11 10:43:19;;;;;;;4.38;1.70;;;13.80;97.00;;;14.74;51.98;97791.91;5235539;28;20614;-65
2023/04/11 10:46:18;;;;;;;3.40;1.85;;;14.00;97.60;;;14.65;52.25;97791.56;5236232;28;20752;-67
2023/04/11 10:49:00;;;;;;;3.47;1.92;;;13.80;97.70;;;14.50;53.59;97794.34;5240185;28;20216;-67
2023/04/11 10:51:34;;;;;;;2.80;1.90;;;13.60;98.20;;;14.50;55.83;97785.75;5235200;28;20232;-67